Time;durP1;ratioP1;P1;durP2;ratioP2;P2;SDS_P1;SDS_P2;PMS_P1;PMS_P2;Temp;Humidity;BMP_temperature;BMP_pressure;BME280_temperature;BME280_humidity;BME280_pressure;Samples;Min_cycle;Max_cycle;Signal;HPM_P1;HPM_P2
2023/12/27 00:02:21;;;;;;;19.77;8.37;;;;;;;;;;10448891;28;20041;-81
2023/12/27 00:07:22;;;;;;;17.90;6.73;;;;;;;;;;10449412;28;20033;-82
2023/12/27 00:12:23;;;;;;;18.13;6.70;;;;;;;;;;10439288;28;20036;-80
2023/12/27 00:17:24;;;;;;;12.20;4.50;;;;;;;;;;10427870;28;20036;-80
2023/12/27 00:22:25;;;;;;;15.60;5.97;;;;;;;;;;10437147;28;20037;-80
2023/12/27 00:27:26;;;;;;;13.47;4.40;;;;;;;;;;10402961;28;20037;-82
2023/12/27 00:32:27;;;;;;;12.30;5.63;;;;;;;;;;10427788;28;20044;-80
2023/12/27 00:37:28;;;;;;;11.37;4.13;;;;;;;;;;10419464;28;20500;-83
2023/12/27 00:42:29;;;;;;;12.30;4.50;;;;;;;;;;10423302;28;20119;-81
2023/12/27 00:47:30;;;;;;;9.33;3.83;;;;;;;;;;10415925;28;20079;-80
2023/12/27 00:52:31;;;;;;;7.63;3.20;;;;;;;;;;10417549;28;20083;-80
2023/12/27 00:57:32;;;;;;;7.37;3.10;;;;;;;;;;10437067;28;20104;-83
2023/12/27 01:02:35;;;;;;;6.43;3.23;;;;;;;;;;10440365;28;20037;-82
2023/12/27 01:07:36;;;;;;;10.00;3.60;;;;;;;;;;10418635;28;20037;-80
2023/12/27 01:12:37;;;;;;;8.80;3.00;;;;;;;;;;10427779;28;20036;-80
2023/12/27 01:17:38;;;;;;;6.57;2.70;;;;;;;;;;10443111;28;20029;-80
2023/12/27 01:22:39;;;;;;;9.20;2.83;;;;;;;;;;10421626;28;20763;-80
2023/12/27 01:27:40;;;;;;;8.20;2.80;;;;;;;;;;10432766;28;20076;-80
2023/12/27 01:32:41;;;;;;;4.77;2.63;;;;;;;;;;10415581;28;20488;-81
2023/12/27 01:37:43;;;;;;;6.33;2.50;;;;;;;;;;10421399;28;20057;-81
2023/12/27 01:42:44;;;;;;;6.03;2.57;;;;;;;;;;10429761;28;20048;-80
2023/12/27 01:47:45;;;;;;;5.47;2.83;;;;;;;;;;10422667;28;20041;-83
2023/12/27 01:52:53;;;;;;;7.20;2.87;;;;;;;;;;10420598;28;20041;-83
2023/12/27 01:57:54;;;;;;;9.37;3.70;;;;;;;;;;10444036;28;20480;-80
2023/12/27 02:02:55;;;;;;;11.57;3.73;;;;;;;;;;10418752;28;20049;-79
2023/12/27 02:07:57;;;;;;;6.17;2.60;;;;;;;;;;10442569;28;20123;-80
2023/12/27 02:13:04;;;;;;;6.23;2.30;;;;;;;;;;10424840;28;20053;-80
2023/12/27 02:18:06;;;;;;;5.63;2.10;;;;;;;;;;10423778;28;20044;-79
2023/12/27 02:23:10;;;;;;;6.27;2.07;;;;;;;;;;10433402;28;20033;-79
2023/12/27 02:28:11;;;;;;;6.67;2.30;;;;;;;;;;10438681;28;20041;-84
2023/12/27 02:33:12;;;;;;;6.23;2.27;;;;;;;;;;10411663;28;20052;-82
2023/12/27 02:38:19;;;;;;;5.93;2.17;;;;;;;;;;10412893;28;20061;-84
2023/12/27 02:43:20;;;;;;;5.03;1.90;;;;;;;;;;10416817;28;20143;-81
2023/12/27 02:48:21;;;;;;;3.87;2.23;;;;;;;;;;10412644;28;20040;-80
2023/12/27 02:53:23;;;;;;;4.07;2.67;;;;;;;;;;10425098;28;20075;-84
2023/12/27 02:58:24;;;;;;;4.33;2.13;;;;;;;;;;10430037;28;20120;-84
2023/12/27 03:03:25;;;;;;;3.83;2.33;;;;;;;;;;10418431;28;20524;-82
2023/12/27 03:08:26;;;;;;;6.97;2.30;;;;;;;;;;10432939;28;20122;-80
2023/12/27 03:13:27;;;;;;;3.00;1.23;;;;;;;;;;10434103;28;20086;-79
2023/12/27 03:18:28;;;;;;;1.83;1.10;;;;;;;;;;10429380;28;20043;-80
2023/12/27 03:23:29;;;;;;;2.70;1.37;;;;;;;;;;10432408;28;20042;-79
2023/12/27 03:28:30;;;;;;;4.40;1.67;;;;;;;;;;10433505;28;20048;-81
2023/12/27 03:33:31;;;;;;;4.37;1.50;;;;;;;;;;10391837;28;20638;-79
2023/12/27 03:38:32;;;;;;;2.70;1.00;;;;;;;;;;10434830;28;20187;-84
2023/12/27 03:43:33;;;;;;;4.87;1.40;;;;;;;;;;10428327;28;20041;-80
2023/12/27 03:48:34;;;;;;;1.40;1.30;;;;;;;;;;10432893;28;20029;-84
2023/12/27 03:53:35;;;;;;;2.30;0.93;;;;;;;;;;10436076;28;20576;-79
2023/12/27 03:58:38;;;;;;;2.27;0.80;;;;;;;;;;10445994;28;20047;-81
2023/12/27 04:03:40;;;;;;;3.37;1.10;;;;;;;;;;10432871;28;20378;-79
2023/12/27 04:08:41;;;;;;;3.60;1.33;;;;;;;;;;10444430;28;20099;-79
2023/12/27 04:13:42;;;;;;;5.10;1.50;;;;;;;;;;10417807;28;20036;-79
2023/12/27 04:18:43;;;;;;;3.77;1.50;;;;;;;;;;10436070;28;20029;-80
2023/12/27 04:23:44;;;;;;;2.53;1.57;;;;;;;;;;10440336;28;20049;-78
2023/12/27 04:28:45;;;;;;;2.33;1.20;;;;;;;;;;10437545;28;20552;-80
2023/12/27 04:33:46;;;;;;;3.23;1.30;;;;;;;;;;10429405;28;20033;-80
2023/12/27 04:38:54;;;;;;;4.50;1.90;;;;;;;;;;10429886;28;20045;-85
2023/12/27 04:43:55;;;;;;;4.67;1.73;;;;;;;;;;10428678;28;20095;-80
2023/12/27 04:48:56;;;;;;;4.00;1.20;;;;;;;;;;10435698;28;20038;-79
2023/12/27 04:53:57;;;;;;;7.07;1.43;;;;;;;;;;10432081;28;20056;-80
2023/12/27 04:58:58;;;;;;;6.50;1.40;;;;;;;;;;10440547;28;20483;-81
2023/12/27 05:03:59;;;;;;;7.97;1.33;;;;;;;;;;10407156;28;20048;-80
2023/12/27 05:09:03;;;;;;;7.57;1.60;;;;;;;;;;10444059;28;20021;-79
2023/12/27 05:14:05;;;;;;;9.17;1.70;;;;;;;;;;10422562;28;20112;-82
2023/12/27 05:19:06;;;;;;;8.10;1.10;;;;;;;;;;10419536;28;20068;-81
2023/12/27 05:24:07;;;;;;;8.97;1.63;;;;;;;;;;10431593;28;20037;-80
2023/12/27 05:29:08;;;;;;;4.83;1.47;;;;;;;;;;10417071;28;20522;-81
2023/12/27 05:34:09;;;;;;;7.00;1.73;;;;;;;;;;10437291;28;20029;-79
2023/12/27 05:39:12;;;;;;;7.80;1.37;;;;;;;;;;10435619;28;20057;-83
2023/12/27 05:44:13;;;;;;;7.13;1.43;;;;;;;;;;10431245;28;20053;-81
2023/12/27 05:49:14;;;;;;;9.67;1.50;;;;;;;;;;10415575;28;20044;-79
2023/12/27 05:54:15;;;;;;;9.13;3.53;;;;;;;;;;10423332;28;20040;-80
2023/12/27 05:59:17;;;;;;;10.43;4.27;;;;;;;;;;10439292;28;20072;-80
2023/12/27 06:04:18;;;;;;;10.93;4.10;;;;;;;;;;10434683;28;20045;-80
2023/12/27 06:09:19;;;;;;;10.60;3.90;;;;;;;;;;10446202;28;20037;-84
2023/12/27 06:14:20;;;;;;;9.90;3.30;;;;;;;;;;10415537;28;20026;-79
2023/12/27 06:19:21;;;;;;;8.73;2.97;;;;;;;;;;10405269;28;20025;-80
2023/12/27 06:24:22;;;;;;;13.07;4.20;;;;;;;;;;10433097;28;20044;-80
2023/12/27 06:29:23;;;;;;;18.57;5.70;;;;;;;;;;10396970;28;20025;-83
2023/12/27 06:34:24;;;;;;;14.63;5.50;;;;;;;;;;10416318;28;20036;-81
2023/12/27 06:39:25;;;;;;;8.23;3.20;;;;;;;;;;10435459;28;20505;-82
2023/12/27 06:44:26;;;;;;;14.80;4.77;;;;;;;;;;10419040;28;20041;-80
2023/12/27 06:49:28;;;;;;;22.57;7.53;;;;;;;;;;10425628;28;20037;-81
2023/12/27 06:54:29;;;;;;;16.57;5.47;;;;;;;;;;10403996;28;20030;-83
2023/12/27 06:59:30;;;;;;;14.10;6.30;;;;;;;;;;10397266;28;20132;-82
2023/12/27 07:04:31;;;;;;;20.20;7.07;;;;;;;;;;10379934;28;20038;-82
2023/12/27 07:09:32;;;;;;;12.83;5.33;;;;;;;;;;10378545;28;20392;-82
2023/12/27 07:14:33;;;;;;;20.30;6.83;;;;;;;;;;10397630;28;20026;-81
2023/12/27 07:19:34;;;;;;;20.53;8.13;;;;;;;;;;10385676;28;20041;-83
2023/12/27 07:24:35;;;;;;;12.70;5.87;;;;;;;;;;10403343;28;20107;-83
2023/12/27 07:29:37;;;;;;;11.73;5.47;;;;;;;;;;10383168;28;20396;-81
2023/12/27 07:34:38;;;;;;;16.07;5.07;;;;;;;;;;10403129;28;20030;-84
2023/12/27 07:39:40;;;;;;;17.20;6.60;;;;;;;;;;10399481;28;20088;-83
2023/12/27 07:44:41;;;;;;;18.77;7.37;;;;;;;;;;10400173;28;20045;-83
2023/12/27 07:49:42;;;;;;;16.57;6.37;;;;;;;;;;10403953;28;20469;-81
2023/12/27 07:55:27;;;;;;;26.60;7.83;;;;;;;;;;10401689;28;20396;-83
2023/12/27 08:00:35;;;;;;;16.80;5.50;;;;;;;;;;10402006;28;20045;-81
2023/12/27 08:05:36;;;;;;;16.93;6.30;;;;;;;;;;10418457;28;20075;-82
2023/12/27 08:10:37;;;;;;;17.67;7.03;;;;;;;;;;10407916;28;20056;-84
2023/12/27 08:15:40;;;;;;;23.43;8.10;;;;;;;;;;10397621;28;20033;-81
2023/12/27 08:20:41;;;;;;;19.33;7.00;;;;;;;;;;10421917;28;20090;-83
2023/12/27 08:25:41;;;;;;;14.60;6.03;;;;;;;;;;10448671;28;20032;-81
2023/12/27 08:30:44;;;;;;;29.83;10.73;;;;;;;;;;10449012;28;20497;-80
2023/12/27 08:35:45;;;;;;;22.17;8.47;;;;;;;;;;10445207;28;20389;-80
2023/12/27 08:46:29;;;;;;;22.17;6.97;;;;;;;;;;10449031;28;20032;-80
2023/12/27 08:51:30;;;;;;;13.37;5.70;;;;;;;;;;10446571;28;20066;-80
2023/12/27 08:56:31;;;;;;;13.47;4.47;;;;;;;;;;10391794;28;20056;-82
2023/12/27 09:01:32;;;;;;;13.57;4.23;;;;;;;;;;10407432;28;20042;-82
2023/12/27 09:06:33;;;;;;;8.20;2.83;;;;;;;;;;10418809;28;20147;-80
2023/12/27 09:11:51;;;;;;;;;;;;;;;;;;;;;
2023/12/27 09:16:53;;;;;;;10.53;3.50;;;;;;;;;;10411065;28;20041;-80
2023/12/27 09:22:01;;;;;;;11.83;4.03;;;;;;;;;;10461788;22;20068;-80
2023/12/27 09:27:03;;;;;;;9.17;3.23;;;;;;;;;;10488931;28;20029;-80
2023/12/27 09:32:16;;;;;;;9.97;4.17;;;;;;;;;;10487162;28;20462;-84
2023/12/27 09:37:17;;;;;;;7.90;2.67;;;;;;;;;;10483212;28;20021;-82
2023/12/27 09:42:37;;;;;;;18.17;5.23;;;;;;;;;;10484991;28;20044;-83
2023/12/27 09:47:39;;;;;;;10.97;3.93;;;;;;;;;;10474883;28;20031;-82
2023/12/27 09:52:43;;;;;;;4.83;2.13;;;;;;;;;;10469239;28;20206;-81
2023/12/27 09:57:49;;;;;;;7.83;3.60;;;;;;;;;;10481022;28;20027;-80
2023/12/27 10:02:54;;;;;;;10.77;3.37;;;;;;;;;;10478482;28;20068;-84
2023/12/27 10:08:30;;;;;;;10.70;3.63;;;;;;;;;;10232019;27;8354197;-85
2023/12/27 10:13:35;;;;;;;12.30;3.60;;;;;;;;;;10495309;28;20384;-81
2023/12/27 10:18:36;;;;;;;16.50;6.37;;;;;;;;;;10496203;28;20048;-81
2023/12/27 10:23:37;;;;;;;12.07;5.47;;;;;;;;;;10503896;28;20522;-81
2023/12/27 10:28:42;;;;;;;9.27;3.03;;;;;;;;;;10507536;28;20040;-81
2023/12/27 10:33:44;;;;;;;9.18;3.17;;;;;;;;;;10498573;28;20799;-85
2023/12/27 10:38:45;;;;;;;8.43;2.73;;;;;;;;;;10489712;28;20028;-81
2023/12/27 10:43:50;;;;;;;9.03;2.43;;;;;;;;;;10492317;28;20029;-80
2023/12/27 10:48:52;;;;;;;6.90;3.30;;;;;;;;;;10496491;28;20036;-81
2023/12/27 10:53:55;;;;;;;13.87;4.10;;;;;;;;;;10507388;28;20044;-81
2023/12/27 10:58:57;;;;;;;11.20;4.60;;;;;;;;;;10519830;28;20033;-81
2023/12/27 11:03:58;;;;;;;8.17;2.50;;;;;;;;;;10520123;28;20056;-80
2023/12/27 11:09:00;;;;;;;7.20;2.10;;;;;;;;;;10544209;28;20406;-80
2023/12/27 11:14:03;;;;;;;15.43;5.53;;;;;;;;;;10559422;28;20028;-81
2023/12/27 11:19:08;;;;;;;22.70;5.83;;;;;;;;;;10518343;28;20051;-80
2023/12/27 11:24:09;;;;;;;11.93;2.40;;;;;;;;;;10503526;28;20068;-80
2023/12/27 11:29:16;;;;;;;5.57;2.30;;;;;;;;;;10521445;28;20109;-82
2023/12/27 11:34:18;;;;;;;6.97;2.80;;;;;;;;;;10510251;28;20060;-80
2023/12/27 11:39:20;;;;;;;14.33;4.50;;;;;;;;;;10511900;28;20036;-80
2023/12/27 11:44:21;;;;;;;11.27;4.17;;;;;;;;;;10510230;28;20039;-83
2023/12/27 11:49:22;;;;;;;8.50;2.77;;;;;;;;;;10502762;28;20040;-83
2023/12/27 11:54:25;;;;;;;10.27;3.50;;;;;;;;;;10506201;28;20537;-82
2023/12/27 11:59:27;;;;;;;11.60;4.17;;;;;;;;;;10511647;28;20024;-81
2023/12/27 12:04:29;;;;;;;8.63;3.93;;;;;;;;;;10512071;28;20044;-81
2023/12/27 12:09:44;;;;;;;12.50;3.97;;;;;;;;;;10518059;28;20488;-83
2023/12/27 12:14:45;;;;;;;10.30;4.73;;;;;;;;;;10497622;22;20575;-82
2023/12/27 12:19:47;;;;;;;13.43;3.90;;;;;;;;;;10415790;28;20494;-81
2023/12/27 12:24:48;;;;;;;11.43;4.13;;;;;;;;;;10452975;28;20044;-80
2023/12/27 12:29:49;;;;;;;8.60;3.60;;;;;;;;;;10428818;28;20037;-79
2023/12/27 12:34:50;;;;;;;22.23;8.00;;;;;;;;;;10446691;28;20083;-80
2023/12/27 12:39:51;;;;;;;25.17;6.97;;;;;;;;;;10449014;28;20048;-81
2023/12/27 12:44:53;;;;;;;13.00;4.60;;;;;;;;;;10448397;28;20052;-82
2023/12/27 12:49:54;;;;;;;17.83;5.63;;;;;;;;;;10433039;28;20045;-80
2023/12/27 12:55:06;;;;;;;20.10;6.53;;;;;;;;;;10447633;28;20036;-80
2023/12/27 13:00:08;;;;;;;24.63;8.40;;;;;;;;;;10428068;28;20033;-79
2023/12/27 13:05:12;;;;;;;22.40;7.97;;;;;;;;;;10447649;28;20036;-81
2023/12/27 13:10:13;;;;;;;33.50;13.67;;;;;;;;;;10428276;28;20124;-82
2023/12/27 13:15:19;;;;;;;14.27;5.83;;;;;;;;;;10425566;28;20430;-79
2023/12/27 13:20:20;;;;;;;21.38;8.80;;;;;;;;;;10435226;28;20027;-79
2023/12/27 13:25:21;;;;;;;13.97;5.30;;;;;;;;;;10428407;28;20037;-79
2023/12/27 13:30:22;;;;;;;21.00;8.60;;;;;;;;;;10442978;28;20049;-79
2023/12/27 13:35:23;;;;;;;21.53;9.03;;;;;;;;;;10441819;28;20035;-79
2023/12/27 13:40:25;;;;;;;20.20;7.70;;;;;;;;;;10427553;28;20033;-80
2023/12/27 13:45:26;;;;;;;18.90;6.60;;;;;;;;;;10426505;28;20037;-85
2023/12/27 13:50:28;;;;;;;15.70;5.97;;;;;;;;;;10433847;28;20116;-82
2023/12/27 13:55:42;;;;;;;13.07;5.30;;;;;;;;;;10427847;28;20493;-82
2023/12/27 14:00:43;;;;;;;14.80;4.83;;;;;;;;;;10425120;28;20034;-79
2023/12/27 14:05:44;;;;;;;10.43;4.80;;;;;;;;;;10406016;28;20076;-80
2023/12/27 14:10:46;;;;;;;19.47;7.00;;;;;;;;;;10442353;28;20031;-79
2023/12/27 14:15:53;;;;;;;35.13;13.70;;;;;;;;;;10439654;28;20083;-80
2023/12/27 14:20:54;;;;;;;41.93;18.87;;;;;;;;;;10441010;28;20017;-79
2023/12/27 14:25:57;;;;;;;59.60;22.80;;;;;;;;;;10434919;28;20829;-81
2023/12/27 14:30:58;;;;;;;49.27;20.17;;;;;;;;;;10442344;28;20162;-82
2023/12/27 14:35:59;;;;;;;32.87;13.03;;;;;;;;;;10426403;28;20481;-80
2023/12/27 14:41:02;;;;;;;33.47;12.37;;;;;;;;;;10443228;28;20028;-80
2023/12/27 14:46:10;;;;;;;78.83;33.97;;;;;;;;;;10437501;28;20037;-80
2023/12/27 14:51:10;;;;;;;46.27;20.93;;;;;;;;;;10430310;28;20024;-80
2023/12/27 14:56:11;;;;;;;101.33;46.03;;;;;;;;;;10451428;28;20032;-80
2023/12/27 15:01:13;;;;;;;65.27;28.77;;;;;;;;;;10450579;28;20040;-80
2023/12/27 15:06:14;;;;;;;61.67;27.63;;;;;;;;;;10432287;28;20037;-80
2023/12/27 15:11:15;;;;;;;81.40;37.37;;;;;;;;;;10451380;28;20037;-79
2023/12/27 15:16:16;;;;;;;83.77;36.80;;;;;;;;;;10450347;28;20053;-79
2023/12/27 15:21:22;;;;;;;73.90;33.17;;;;;;;;;;10441309;22;20080;-81
2023/12/27 15:26:23;;;;;;;65.15;30.13;;;;;;;;;;10433018;28;20041;-79
2023/12/27 15:31:26;;;;;;;54.60;24.13;;;;;;;;;;10449879;28;20032;-81
2023/12/27 15:36:28;;;;;;;50.97;24.23;;;;;;;;;;10432745;28;20080;-79
2023/12/27 15:41:29;;;;;;;65.73;27.80;;;;;;;;;;10450939;28;20580;-79
2023/12/27 15:46:30;;;;;;;52.60;23.87;;;;;;;;;;10448682;28;20072;-80
2023/12/27 15:51:32;;;;;;;34.23;14.23;;;;;;;;;;10444858;28;20032;-81
2023/12/27 15:56:41;;;;;;;44.03;20.00;;;;;;;;;;10448635;28;20495;-80
2023/12/27 16:01:45;;;;;;;46.13;20.70;;;;;;;;;;10448453;28;20033;-78
2023/12/27 16:06:47;;;;;;;39.27;16.80;;;;;;;;;;10448543;28;20040;-80
2023/12/27 16:11:49;;;;;;;34.40;16.07;;;;;;;;;;10448358;28;20029;-78
2023/12/27 16:16:51;;;;;;;38.30;16.60;;;;;;;;;;10447854;28;20040;-79
2023/12/27 16:21:52;;;;;;;28.13;12.63;;;;;;;;;;10418150;28;20057;-80
2023/12/27 16:26:53;;;;;;;50.13;21.43;;;;;;;;;;10448332;28;20061;-79
2023/12/27 16:31:54;;;;;;;97.27;45.90;;;;;;;;;;10438131;28;20477;-81
2023/12/27 16:36:55;;;;;;;282.83;122.07;;;;;;;;;;10433976;28;20033;-80
2023/12/27 16:41:59;;;;;;;160.53;73.63;;;;;;;;;;10436787;28;20040;-80
2023/12/27 16:47:10;;;;;;;116.50;51.77;;;;;;;;;;10445425;28;20168;-81
2023/12/27 16:52:17;;;;;;;119.50;51.07;;;;;;;;;;10425769;28;20044;-79
2023/12/27 16:57:18;;;;;;;141.27;60.53;;;;;;;;;;10442728;28;20059;-79
2023/12/27 17:02:20;;;;;;;166.37;68.07;;;;;;;;;;10426530;28;20473;-78
2023/12/27 17:07:28;;;;;;;163.27;71.07;;;;;;;;;;10445337;28;20439;-82
2023/12/27 17:12:29;;;;;;;175.00;76.23;;;;;;;;;;10447981;28;20041;-80
2023/12/27 17:17:31;;;;;;;130.07;57.67;;;;;;;;;;10443399;28;20135;-78
2023/12/27 17:22:32;;;;;;;118.10;50.80;;;;;;;;;;10437237;28;20062;-82
2023/12/27 17:27:53;;;;;;;96.13;44.97;;;;;;;;;;10433546;28;20053;-81
2023/12/27 17:33:01;;;;;;;121.30;55.37;;;;;;;;;;10443894;28;20033;-81
2023/12/27 17:38:02;;;;;;;158.00;72.37;;;;;;;;;;10437351;28;20034;-78
2023/12/27 17:43:03;;;;;;;168.80;76.50;;;;;;;;;;10426642;28;20025;-78
2023/12/27 17:48:20;;;;;;;140.23;65.13;;;;;;;;;;10443919;28;20515;-78
2023/12/27 17:53:22;;;;;;;131.02;58.40;;;;;;;;;;10438949;28;20442;-76
2023/12/27 17:58:26;;;;;;;154.23;69.33;;;;;;;;;;10445241;28;20028;-79
2023/12/27 18:03:30;;;;;;;213.67;97.63;;;;;;;;;;10439241;28;20032;-77
2023/12/27 18:08:31;;;;;;;166.13;76.30;;;;;;;;;;10428797;28;20036;-79
2023/12/27 18:13:33;;;;;;;277.87;123.80;;;;;;;;;;10439159;28;20063;-80
2023/12/27 18:18:37;;;;;;;233.57;105.03;;;;;;;;;;10440193;28;20507;-80
2023/12/27 18:23:54;;;;;;;215.80;103.27;;;;;;;;;;10463359;22;20106;-79
2023/12/27 18:28:55;;;;;;;;;;;;;;;;;;10416409;28;20040;-77
2023/12/27 18:33:56;;;;;;;197.40;94.70;;;;;;;;;;10400648;28;19936;-79
2023/12/27 18:39:04;;;;;;;191.77;98.23;;;;;;;;;;10399670;28;20044;-78
2023/12/27 18:44:05;;;;;;;302.33;156.57;;;;;;;;;;10362502;28;20045;-80
2023/12/27 18:49:10;;;;;;;181.70;93.87;;;;;;;;;;10392832;28;20035;-79
2023/12/27 18:54:11;;;;;;;169.97;84.73;;;;;;;;;;10378359;28;20037;-78
2023/12/27 18:59:12;;;;;;;162.23;82.80;;;;;;;;;;10409511;28;20029;-80
2023/12/27 19:04:14;;;;;;;147.63;75.97;;;;;;;;;;10405461;28;20052;-78
2023/12/27 19:09:15;;;;;;;158.50;78.47;;;;;;;;;;10378643;28;20037;-78
2023/12/27 19:14:16;;;;;;;153.77;73.63;;;;;;;;;;10380149;28;20435;-79
2023/12/27 19:19:19;;;;;;;146.67;82.67;;;;;;;;;;10384244;28;20075;-80
2023/12/27 19:24:57;;;;;;;162.67;83.70;;;;;;;;;;10391016;28;20132;-79
2023/12/27 19:29:58;;;;;;;169.73;92.63;;;;;;;;;;10384198;28;20057;-79
2023/12/27 19:35:00;;;;;;;180.27;92.77;;;;;;;;;;10396918;28;20049;-84
2023/12/27 19:40:01;;;;;;;172.43;92.00;;;;;;;;;;10374890;28;20045;-80
2023/12/27 19:45:02;;;;;;;165.50;84.53;;;;;;;;;;10376366;28;20041;-80
2023/12/27 19:50:04;;;;;;;159.97;81.57;;;;;;;;;;10380963;28;20828;-82
2023/12/27 19:55:12;;;;;;;156.93;80.73;;;;;;;;;;10377146;28;20437;-80
2023/12/27 20:00:13;;;;;;;162.33;81.53;;;;;;;;;;10380657;28;20041;-79
2023/12/27 20:05:14;;;;;;;146.40;74.87;;;;;;;;;;10378058;28;20437;-81
2023/12/27 20:10:15;;;;;;;156.37;75.97;;;;;;;;;;10376788;28;20037;-79
2023/12/27 20:15:16;;;;;;;153.93;73.33;;;;;;;;;;10376925;28;20038;-83
2023/12/27 20:20:17;;;;;;;171.97;79.03;;;;;;;;;;10370496;28;20056;-79
2023/12/27 20:25:19;;;;;;;160.17;75.30;;;;;;;;;;10361281;28;20141;-81
2023/12/27 20:30:19;;;;;;;171.23;81.43;;;;;;;;;;10362265;28;20041;-78
2023/12/27 20:35:21;;;;;;;178.50;85.50;;;;;;;;;;10366912;28;20060;-82
2023/12/27 20:40:22;;;;;;;164.10;82.47;;;;;;;;;;10387643;28;20103;-82
2023/12/27 20:45:23;;;;;;;175.03;83.57;;;;;;;;;;10370567;28;20445;-81
2023/12/27 20:50:25;;;;;;;226.23;95.50;;;;;;;;;;10383683;28;20068;-81
2023/12/27 20:55:26;;;;;;;207.67;86.63;;;;;;;;;;10384333;28;20034;-82
2023/12/27 21:00:27;;;;;;;170.33;77.83;;;;;;;;;;10395506;28;20038;-80
2023/12/27 21:05:28;;;;;;;149.53;71.87;;;;;;;;;;10384758;28;20042;-80
2023/12/27 21:10:29;;;;;;;146.60;66.97;;;;;;;;;;10382616;28;20176;-80
2023/12/27 21:15:31;;;;;;;173.07;73.90;;;;;;;;;;10379450;28;20091;-81
2023/12/27 21:20:32;;;;;;;167.67;72.57;;;;;;;;;;10392512;28;20052;-80
2023/12/27 21:25:35;;;;;;;168.60;71.70;;;;;;;;;;10366201;28;20067;-80
2023/12/27 21:30:36;;;;;;;155.80;70.23;;;;;;;;;;10375464;28;20576;-81
2023/12/27 21:35:37;;;;;;;145.07;69.33;;;;;;;;;;10367395;28;20034;-80
2023/12/27 21:40:38;;;;;;;147.60;67.27;;;;;;;;;;10373181;28;20631;-80
2023/12/27 21:45:39;;;;;;;143.13;64.87;;;;;;;;;;10398173;28;20049;-80
2023/12/27 21:50:40;;;;;;;202.33;80.10;;;;;;;;;;10399327;28;20037;-80
2023/12/27 21:55:41;;;;;;;165.33;73.17;;;;;;;;;;10402002;28;20545;-80
2023/12/27 22:00:42;;;;;;;142.37;63.50;;;;;;;;;;10400841;28;20029;-80
2023/12/27 22:05:43;;;;;;;123.43;60.33;;;;;;;;;;10402233;28;20041;-80
2023/12/27 22:10:44;;;;;;;116.83;53.27;;;;;;;;;;10401564;28;20041;-80
2023/12/27 22:15:46;;;;;;;122.30;56.77;;;;;;;;;;10388901;28;20041;-79
2023/12/27 22:20:47;;;;;;;124.17;59.37;;;;;;;;;;10399682;28;20420;-79
2023/12/27 22:25:48;;;;;;;125.63;57.90;;;;;;;;;;10401578;28;20056;-80
2023/12/27 22:30:49;;;;;;;113.53;55.13;;;;;;;;;;10394714;28;20033;-79
2023/12/27 22:35:50;;;;;;;117.63;55.97;;;;;;;;;;10394687;28;20037;-83
2023/12/27 22:40:51;;;;;;;111.50;51.87;;;;;;;;;;10401895;28;20128;-80
2023/12/27 22:45:52;;;;;;;114.67;52.57;;;;;;;;;;10398413;28;20424;-80
2023/12/27 22:50:53;;;;;;;106.70;50.47;;;;;;;;;;10390772;28;20041;-82
2023/12/27 22:55:54;;;;;;;116.33;51.80;;;;;;;;;;10397193;28;20044;-83
2023/12/27 23:00:55;;;;;;;108.33;50.70;;;;;;;;;;10398990;28;20025;-80
2023/12/27 23:05:56;;;;;;;109.73;53.70;;;;;;;;;;10388625;28;20042;-81
2023/12/27 23:11:04;;;;;;;113.73;53.73;;;;;;;;;;10400661;28;20033;-80
2023/12/27 23:16:05;;;;;;;111.63;53.27;;;;;;;;;;10401948;28;20048;-81
2023/12/27 23:21:06;;;;;;;122.20;58.13;;;;;;;;;;10410317;28;20032;-80
2023/12/27 23:26:07;;;;;;;112.63;52.13;;;;;;;;;;10390704;28;20179;-80
2023/12/27 23:31:08;;;;;;;111.03;51.83;;;;;;;;;;10392834;28;20030;-80
2023/12/27 23:36:10;;;;;;;115.97;55.37;;;;;;;;;;10393487;28;20626;-82
2023/12/27 23:41:11;;;;;;;122.37;58.53;;;;;;;;;;10401639;28;20091;-80
2023/12/27 23:46:12;;;;;;;112.50;53.20;;;;;;;;;;10395877;28;20046;-81
2023/12/27 23:51:13;;;;;;;120.53;54.60;;;;;;;;;;10408689;28;20025;-82
2023/12/27 23:56:17;;;;;;;97.60;51.70;;;;;;;;;;10397932;28;20036;-83
